Disclaimer

Please do not use the information listed here in-flight or in-navigation, as they are not provided to us by the airports but are provided by volunteers, so they might be outdated.

Search


Regions


Airport information page

Radio informations:
INFO - 118.95 MHz

Airport informations:
Latitude: 28° 53' 30.32" N
Longitude: 053° 43' 24.02" E
Elevation: 4261 feet - 1299 meters
Operating hours: Remarks
Operating agency: Civil government, landing fees and diplomatic clearance may be required
Timezone: UTC+3:30
Fuel: N/A

Runway information:
14/32 - 6502 x 100 feet< - >1982 x 30 meters

Recent METARs:
OISF 122200Z 33004KT CAVOK 09/07 Q1017
OISF 122200Z 33004KT CAVOK 09/07 Q1017
OISF 122300Z 33004KT CAVOK 08/06 Q1017

Airport on the map: